createdAt,value
2018-04-18T00:02:59.515Z,102265
2018-04-18T00:07:51.035Z,102272
2018-04-18T00:12:42.604Z,102280
2018-04-18T00:17:35.161Z,102276
2018-04-18T00:22:26.714Z,102285
2018-04-18T00:27:18.224Z,102281
2018-04-18T00:32:09.759Z,102284
2018-04-18T00:37:19.185Z,102284
2018-04-18T00:42:12.895Z,102282
2018-04-18T00:47:06.486Z,102276
2018-04-18T00:51:58.039Z,102278
2018-04-18T00:56:50.305Z,102280
2018-04-18T01:01:42.600Z,102284
2018-04-18T01:06:34.134Z,102285
2018-04-18T01:11:25.719Z,102291
2018-04-18T01:16:17.285Z,102292
2018-04-18T01:21:08.865Z,102295
2018-04-18T01:26:00.443Z,102299
2018-04-18T01:30:51.987Z,102295
2018-04-18T01:35:43.482Z,102299
2018-04-18T01:40:34.976Z,102310
2018-04-18T01:45:26.568Z,102302
2018-04-18T01:50:18.833Z,102311
2018-04-18T01:55:10.346Z,102312
2018-04-18T02:00:02.657Z,102320
2018-04-18T02:05:09.301Z,102330
2018-04-18T02:10:05.659Z,102334
2018-04-18T02:14:57.165Z,102343
2018-04-18T02:19:48.802Z,102354
2018-04-18T02:24:41.072Z,102360
2018-04-18T02:29:33.565Z,102363
2018-04-18T02:34:25.111Z,102356
2018-04-18T02:39:16.732Z,102362
2018-04-18T02:44:08.240Z,102364
2018-04-18T02:48:59.806Z,102371
2018-04-18T02:53:51.415Z,102380
2018-04-18T02:58:42.968Z,102384
2018-04-18T03:03:34.504Z,102390
2018-04-18T03:08:26.067Z,102389
2018-04-18T03:13:17.597Z,102387
2018-04-18T03:18:09.081Z,102392
2018-04-18T03:23:00.610Z,102399
2018-04-18T03:27:52.148Z,102398
2018-04-18T03:32:43.696Z,102399
2018-04-18T03:37:35.332Z,102406
2018-04-18T03:42:26.859Z,102408
2018-04-18T03:47:18.644Z,102413
2018-04-18T03:52:10.191Z,102416
2018-04-18T03:57:01.769Z,102419
2018-04-18T04:01:53.253Z,102428
2018-04-18T04:06:44.773Z,102426
2018-04-18T04:11:36.422Z,102430
2018-04-18T04:16:46.542Z,102434
2018-04-18T04:21:56.652Z,102434
2018-04-18T04:26:48.155Z,102441
2018-04-18T04:31:40.642Z,102442
2018-04-18T04:36:32.167Z,102444
2018-04-18T04:41:23.772Z,102447
2018-04-18T04:46:15.320Z,102450
2018-04-18T04:51:06.891Z,102447
2018-04-18T04:55:58.415Z,102453
2018-04-18T05:00:49.983Z,102460
2018-04-18T05:05:42.251Z,102475
2018-04-18T05:10:33.842Z,102477
2018-04-18T05:15:25.393Z,102482
2018-04-18T05:20:17.035Z,102486
2018-04-18T05:25:09.322Z,102493
2018-04-18T05:30:00.908Z,102494
2018-04-18T05:34:52.419Z,102501
2018-04-18T05:39:44.941Z,102505
2018-04-18T05:44:36.458Z,102501
2018-04-18T05:49:28.751Z,102497
2018-04-18T05:54:21.043Z,102497
2018-04-18T05:59:12.597Z,102502
2018-04-18T06:04:04.919Z,102494
2018-04-18T06:08:56.460Z,102492
2018-04-18T06:13:47.967Z,102502
2018-04-18T06:18:39.478Z,102505
2018-04-18T06:23:31.012Z,102513
2018-04-18T06:28:22.522Z,102518
2018-04-18T06:33:14.795Z,102527
2018-04-18T06:38:06.324Z,102524
2018-04-18T06:42:57.820Z,102526
2018-04-18T06:47:50.128Z,102532
2018-04-18T06:52:41.665Z,102528
2018-04-18T06:57:33.180Z,102529
2018-04-18T07:02:24.711Z,102529
2018-04-18T07:07:16.233Z,102530
2018-04-18T07:12:07.792Z,102528
2018-04-18T07:16:59.302Z,102525
2018-04-18T07:21:50.850Z,102529
2018-04-18T07:26:42.402Z,102526
2018-04-18T07:31:33.937Z,102533
2018-04-18T07:36:25.475Z,102536
2018-04-18T07:41:17.091Z,102534
2018-04-18T07:46:08.616Z,102534
2018-04-18T07:51:00.162Z,102536
2018-04-18T07:55:51.708Z,102536
2018-04-18T08:00:43.285Z,102546
2018-04-18T08:05:34.809Z,102546
2018-04-18T08:10:26.346Z,102543
2018-04-18T08:15:17.943Z,102543
2018-04-18T08:20:10.287Z,102543
2018-04-18T08:25:01.840Z,102543
2018-04-18T08:29:53.368Z,102542
2018-04-18T08:34:44.888Z,102549
2018-04-18T08:39:36.429Z,102550
2018-04-18T08:44:27.952Z,102549
2018-04-18T08:49:19.553Z,102551
2018-04-18T08:54:11.829Z,102550
2018-04-18T08:59:03.424Z,102550
2018-04-18T09:03:55.002Z,102544
2018-04-18T09:08:46.535Z,102546
2018-04-18T09:13:38.059Z,102543
2018-04-18T09:18:30.342Z,102539
2018-04-18T09:23:21.853Z,102534
2018-04-18T09:28:14.300Z,102535
2018-04-18T09:33:06.698Z,102531
2018-04-18T09:37:58.279Z,102528
2018-04-18T09:42:50.583Z,102529
2018-04-18T10:16:14.845Z,102514
2018-04-18T10:21:06.344Z,102505
2018-04-18T10:25:58.630Z,102504
2018-04-18T10:30:50.141Z,102510
2018-04-18T10:35:42.398Z,102506
2018-04-18T10:40:34.657Z,102498
2018-04-18T10:45:26.190Z,102496
2018-04-18T10:50:17.725Z,102499
2018-04-18T10:55:09.297Z,102492
2018-04-18T11:00:00.825Z,102485
2018-04-18T11:04:52.373Z,102486
2018-04-18T11:09:43.972Z,102486
2018-04-18T11:14:35.476Z,102480
2018-04-18T11:19:27.814Z,102476
2018-04-18T11:24:19.450Z,102475
2018-04-18T11:29:12.498Z,102469
2018-04-18T11:34:04.804Z,102469
2018-04-18T11:38:56.427Z,102463
2018-04-18T11:43:48.731Z,102451
2018-04-18T11:48:40.269Z,102452
2018-04-18T11:53:31.814Z,102449
2018-04-18T11:58:23.351Z,102447
2018-04-18T12:03:15.455Z,102444
2018-04-18T12:08:07.051Z,102442
2018-04-18T12:12:58.519Z,102438
2018-04-18T12:17:50.088Z,102437
2018-04-18T12:22:42.361Z,102436
2018-04-18T12:27:33.925Z,102437
2018-04-18T12:32:26.175Z,102430
2018-04-18T12:37:18.423Z,102435
2018-04-18T12:42:10.668Z,102425
2018-04-18T12:47:02.983Z,102417
2018-04-18T12:51:54.584Z,102431
2018-04-18T12:56:46.101Z,102415
2018-04-18T13:01:38.414Z,102397
2018-04-18T13:06:29.960Z,102400
2018-04-18T13:11:21.480Z,102387
2018-04-18T13:16:13.007Z,102378
2018-04-18T13:21:04.613Z,102373
2018-04-18T13:25:56.778Z,102371
2018-04-18T13:30:48.310Z,102365
2018-04-18T13:35:40.123Z,102370
2018-04-18T13:40:31.694Z,102363
2018-04-18T13:45:24.081Z,102367
2018-04-18T13:50:15.611Z,102349
2018-04-18T13:55:07.139Z,102347
2018-04-18T13:59:58.653Z,102345
2018-04-18T14:04:50.171Z,102341
2018-04-18T14:09:41.701Z,102332
2018-04-18T14:14:33.272Z,102328
2018-04-18T14:19:24.903Z,102324
2018-04-18T14:24:16.421Z,102321
2018-04-18T14:29:07.927Z,102313
2018-04-18T14:33:59.448Z,102311
2018-04-18T14:38:51.715Z,102303
2018-04-18T14:43:43.229Z,102297
2018-04-18T14:48:35.491Z,102294
2018-04-18T14:53:27.085Z,102291
2018-04-18T14:58:18.574Z,102288
2018-04-18T15:03:10.079Z,102278
2018-04-18T15:08:02.367Z,102273
2018-04-18T15:12:53.877Z,102266
2018-04-18T15:17:45.508Z,102261
2018-04-18T15:22:37.813Z,102255
2018-04-18T15:27:29.272Z,102261
2018-04-18T15:32:21.115Z,102255
2018-04-18T15:37:12.653Z,102253
2018-04-18T15:42:04.910Z,102250
2018-04-18T15:46:57.187Z,102247
2018-04-18T15:51:48.747Z,102233
2018-04-18T15:56:40.360Z,102239
2018-04-18T16:01:31.912Z,102225
2018-04-18T16:06:23.532Z,102217
2018-04-18T16:11:15.082Z,102219
2018-04-18T16:16:07.502Z,102217
2018-04-18T16:20:59.805Z,102214
2018-04-18T16:25:51.321Z,102216
2018-04-18T16:30:42.851Z,102214
2018-04-18T16:35:34.420Z,102213
2018-04-18T16:40:25.953Z,102209
2018-04-18T16:45:17.504Z,102208
2018-04-18T16:50:09.003Z,102211
2018-04-18T16:55:00.541Z,102207
2018-04-18T16:59:52.055Z,102207
2018-04-18T17:04:43.528Z,102205
2018-04-18T17:09:35.033Z,102208
2018-04-18T17:14:27.364Z,102209
2018-04-18T17:19:18.955Z,102202
2018-04-18T17:24:10.475Z,102202
2018-04-18T17:29:01.989Z,102199
2018-04-18T17:33:54.169Z,102199
2018-04-18T17:38:45.696Z,102195
2018-04-18T17:43:37.214Z,102195
2018-04-18T17:48:28.724Z,102191
2018-04-18T17:53:20.188Z,102200
2018-04-18T17:58:11.713Z,102200
2018-04-18T18:03:03.227Z,102201
2018-04-18T18:07:54.747Z,102204
2018-04-18T18:12:46.291Z,102199
2018-04-18T18:17:37.842Z,102203
2018-04-18T18:22:29.361Z,102206
2018-04-18T18:27:20.989Z,102208
2018-04-18T18:32:12.531Z,102209
2018-04-18T18:37:04.036Z,102211
2018-04-18T18:41:56.287Z,102215
2018-04-18T18:46:48.536Z,102217
2018-04-18T18:51:40.817Z,102215
2018-04-18T18:56:32.329Z,102217
2018-04-18T19:01:25.527Z,102221
2018-04-18T19:06:16.995Z,102222
2018-04-18T19:11:08.545Z,102222
2018-04-18T19:16:00.077Z,102232
2018-04-18T19:20:51.623Z,102236
2018-04-18T19:25:43.927Z,102240
2018-04-18T19:30:35.421Z,102242
2018-04-18T19:35:27.741Z,102246
2018-04-18T19:40:19.270Z,102246
2018-04-18T19:45:10.795Z,102248
2018-04-18T19:50:02.357Z,102245
2018-04-18T19:54:54.349Z,102245
2018-04-18T19:59:45.907Z,102254
2018-04-18T20:04:37.387Z,102251
2018-04-18T20:09:29.705Z,102255
2018-04-18T20:14:21.235Z,102255
2018-04-18T20:19:12.796Z,102261
2018-04-18T20:24:05.073Z,102260
2018-04-18T20:28:56.641Z,102255
2018-04-18T20:33:48.164Z,102258
2018-04-18T20:38:39.733Z,102256
2018-04-18T20:43:31.243Z,102254
2018-04-18T20:48:22.785Z,102258
2018-04-18T20:53:14.307Z,102260
2018-04-18T20:58:05.846Z,102260
2018-04-18T21:02:57.357Z,102265
2018-04-18T21:07:48.891Z,102267
2018-04-18T21:12:40.362Z,102273
2018-04-18T21:17:32.000Z,102275
2018-04-18T21:22:23.522Z,102277
2018-04-18T21:27:15.098Z,102275
2018-04-18T21:32:07.355Z,102279
2018-04-18T21:36:59.675Z,102277
2018-04-18T21:41:52.113Z,102286
2018-04-18T21:46:45.002Z,102284
2018-04-18T21:51:36.596Z,102287
2018-04-18T21:56:28.098Z,102286
2018-04-18T22:12:28.113Z,102290
2018-04-18T22:17:20.389Z,102294
2018-04-18T22:22:12.044Z,102293
2018-04-18T22:27:03.577Z,102282
2018-04-18T22:31:55.074Z,102288
2018-04-18T22:36:46.642Z,102295
2018-04-18T22:41:38.834Z,102291
2018-04-18T22:46:31.093Z,102298
2018-04-18T22:51:23.376Z,102297
2018-04-18T22:56:14.863Z,102298
2018-04-18T23:01:06.389Z,102297
2018-04-18T23:05:58.654Z,102296
2018-04-18T23:10:50.951Z,102297
2018-04-18T23:15:42.484Z,102290
2018-04-18T23:20:34.011Z,102289
2018-04-18T23:25:25.595Z,102287
2018-04-18T23:30:17.153Z,102283
2018-04-18T23:35:09.482Z,102277
2018-04-18T23:40:01.012Z,102271
2018-04-18T23:44:52.566Z,102272
2018-04-18T23:49:44.918Z,102271
2018-04-18T23:54:37.167Z,102272
2018-04-18T23:59:29.484Z,102273
